createdAt,value
2022-09-07T00:00:36.418Z,1007.61
2022-09-07T00:01:34.027Z,1007.61
2022-09-07T00:02:34.037Z,1007.63
2022-09-07T00:03:34.122Z,1007.65
2022-09-07T00:04:34.056Z,1007.64
2022-09-07T00:05:33.953Z,1007.70
2022-09-07T00:06:33.920Z,1007.67
2022-09-07T00:07:33.967Z,1007.62
2022-09-07T00:08:33.898Z,1007.68
2022-09-07T00:09:33.981Z,1007.70
2022-09-07T00:10:33.890Z,1007.68
2022-09-07T00:11:33.890Z,1007.68
2022-09-07T00:12:33.847Z,1007.67
2022-09-07T00:13:33.902Z,1007.70
2022-09-07T00:14:33.828Z,1007.70
2022-09-07T00:15:33.868Z,1007.64
2022-09-07T00:16:33.858Z,1007.67
2022-09-07T00:17:33.829Z,1007.61
2022-09-07T00:18:33.782Z,1007.65
2022-09-07T00:19:33.842Z,1007.66
2022-09-07T00:20:33.775Z,1007.69
2022-09-07T00:21:33.856Z,1007.72
2022-09-07T00:22:33.736Z,1007.74
2022-09-07T00:23:33.767Z,1007.79
2022-09-07T00:24:33.712Z,1007.81
2022-09-07T00:25:33.729Z,1007.80
2022-09-07T00:26:33.684Z,1007.80
2022-09-07T00:27:33.694Z,1007.85
2022-09-07T00:28:33.662Z,1007.83
2022-09-07T00:29:35.755Z,1007.82
2022-09-07T00:30:33.655Z,1007.80
2022-09-07T00:31:34.789Z,1007.85
2022-09-07T00:32:33.619Z,1007.85
2022-09-07T00:33:33.632Z,1007.86
2022-09-07T00:34:33.593Z,1007.85
2022-09-07T00:35:33.701Z,1007.85
2022-09-07T00:36:33.570Z,1007.76
2022-09-07T00:37:34.582Z,1007.80
2022-09-07T00:38:33.551Z,1007.82
2022-09-07T00:39:33.594Z,1007.75
2022-09-07T00:40:33.543Z,1007.72
2022-09-07T00:41:33.584Z,1007.75
2022-09-07T00:42:33.505Z,1007.72
2022-09-07T00:43:33.599Z,1007.73
2022-09-07T00:44:33.481Z,1007.69
2022-09-07T00:45:33.566Z,1007.67
2022-09-07T00:46:33.483Z,1007.73
2022-09-07T00:47:33.528Z,1007.69
2022-09-07T00:48:33.439Z,1007.67
2022-09-07T00:49:33.536Z,1007.65
2022-09-07T00:50:33.432Z,1007.66
2022-09-07T00:51:33.453Z,1007.63
2022-09-07T00:52:33.393Z,1007.64
2022-09-07T00:53:33.461Z,1007.68
2022-09-07T00:54:33.374Z,1007.64
2022-09-07T00:55:33.427Z,1007.60
2022-09-07T00:56:33.351Z,1007.64
2022-09-07T00:57:33.389Z,1007.64
2022-09-07T00:58:33.333Z,1007.62
2022-09-07T00:59:33.403Z,1007.63
2022-09-07T01:00:33.326Z,1007.65
2022-09-07T01:01:33.446Z,1007.59
2022-09-07T01:02:33.413Z,1007.57
2022-09-07T01:03:33.326Z,1007.54
2022-09-07T01:04:33.266Z,1007.51
2022-09-07T01:05:33.287Z,1007.48
2022-09-07T01:06:33.242Z,1007.45
2022-09-07T01:07:33.252Z,1007.41
2022-09-07T01:08:33.221Z,1007.45
2022-09-07T01:09:33.265Z,1007.44
2022-09-07T01:10:33.217Z,1007.40
2022-09-07T01:11:33.279Z,1007.39
2022-09-07T01:12:33.174Z,1007.43
2022-09-07T01:13:54.183Z,1007.43
2022-09-07T01:14:33.155Z,1007.47
2022-09-07T01:15:33.326Z,1007.41
2022-09-07T01:16:33.136Z,1007.45
2022-09-07T01:17:34.142Z,1007.40
2022-09-07T01:18:33.114Z,1007.39
2022-09-07T01:19:33.131Z,1007.40
2022-09-07T01:20:33.113Z,1007.41
2022-09-07T01:21:54.136Z,1007.46
2022-09-07T01:22:33.063Z,1007.47
2022-09-07T01:23:34.081Z,1007.48
2022-09-07T01:24:33.060Z,1007.44
2022-09-07T01:25:33.125Z,1007.39
2022-09-07T01:26:33.022Z,1007.40
2022-09-07T01:27:33.081Z,1007.35
2022-09-07T01:28:32.998Z,1007.39
2022-09-07T01:29:33.099Z,1007.38
2022-09-07T01:30:32.999Z,1007.36
2022-09-07T01:31:33.075Z,1007.32
2022-09-07T01:32:32.960Z,1007.36
2022-09-07T01:33:33.030Z,1007.32
2022-09-07T01:34:32.933Z,1007.33
2022-09-07T01:35:32.990Z,1007.40
2022-09-07T01:36:32.914Z,1007.27
2022-09-07T01:37:32.950Z,1007.24
2022-09-07T01:38:32.896Z,1007.22
2022-09-07T01:39:32.992Z,1007.34
2022-09-07T01:40:32.884Z,1007.31
2022-09-07T01:41:32.877Z,1007.32
2022-09-07T01:42:32.844Z,1007.33
2022-09-07T01:43:32.892Z,1007.36
2022-09-07T01:44:32.839Z,1007.38
2022-09-07T01:45:32.867Z,1007.35
2022-09-07T01:46:32.932Z,1007.28
2022-09-07T01:47:32.817Z,1007.35
2022-09-07T01:48:32.782Z,1007.36
2022-09-07T01:49:32.828Z,1007.46
2022-09-07T01:50:32.775Z,1007.61
2022-09-07T01:51:32.850Z,1007.72
2022-09-07T01:52:32.734Z,1007.71
2022-09-07T01:53:32.754Z,1007.79
2022-09-07T01:54:32.716Z,1007.87
2022-09-07T01:55:32.823Z,1007.92
2022-09-07T01:56:32.687Z,1008.00
2022-09-07T01:57:32.780Z,1008.12
2022-09-07T01:58:32.703Z,1008.22
2022-09-07T01:59:54.709Z,1008.30
2022-09-07T02:00:32.661Z,1008.39
2022-09-07T02:01:32.711Z,1008.44
2022-09-07T02:02:54.792Z,1008.46
2022-09-07T02:03:32.610Z,1008.61
2022-09-07T02:04:32.595Z,1008.66
2022-09-07T02:05:32.687Z,1008.73
2022-09-07T02:06:32.573Z,1008.79
2022-09-07T02:07:32.640Z,1008.86
2022-09-07T02:08:32.551Z,1008.91
2022-09-07T02:09:32.559Z,1008.94
2022-09-07T02:10:32.541Z,1008.95
2022-09-07T02:11:32.566Z,1009.02
2022-09-07T02:12:32.508Z,1009.03
2022-09-07T02:13:32.583Z,1009.04
2022-09-07T02:14:32.496Z,1009.03
2022-09-07T02:15:32.604Z,1009.03
2022-09-07T02:16:32.464Z,1009.05
2022-09-07T02:17:32.533Z,1009.00
2022-09-07T02:18:32.441Z,1009.00
2022-09-07T02:19:32.525Z,1009.03
2022-09-07T02:20:32.582Z,1008.99
2022-09-07T02:21:32.552Z,1008.95
2022-09-07T02:22:32.498Z,1008.86
2022-09-07T02:23:32.580Z,1008.81
2022-09-07T02:24:32.455Z,1008.77
2022-09-07T02:25:32.474Z,1008.81
2022-09-07T02:26:32.414Z,1008.72
2022-09-07T02:27:32.389Z,1008.65
2022-09-07T02:28:32.664Z,1008.74
2022-09-07T02:29:32.390Z,1008.68
2022-09-07T02:30:32.343Z,1008.60
2022-09-07T02:31:32.449Z,1008.57
2022-09-07T02:32:32.287Z,1008.59
2022-09-07T02:33:32.329Z,1008.52
2022-09-07T02:34:32.264Z,1008.46
2022-09-07T02:35:32.393Z,1008.48
2022-09-07T02:36:32.240Z,1008.42
2022-09-07T02:37:32.342Z,1008.40
2022-09-07T02:38:32.349Z,1008.39
2022-09-07T02:39:32.288Z,1008.44
2022-09-07T02:40:32.215Z,1008.43
2022-09-07T02:41:32.265Z,1008.41
2022-09-07T02:42:32.176Z,1008.44
2022-09-07T02:43:32.277Z,1008.47
2022-09-07T02:44:32.172Z,1008.43
2022-09-07T02:45:32.246Z,1008.47
2022-09-07T02:46:32.225Z,1008.43
2022-09-07T02:47:34.160Z,1008.45
2022-09-07T02:48:32.111Z,1008.49
2022-09-07T02:49:32.118Z,1008.55
2022-09-07T02:50:32.100Z,1008.58
2022-09-07T02:51:32.144Z,1008.55
2022-09-07T02:52:32.069Z,1008.53
2022-09-07T02:53:32.141Z,1008.51
2022-09-07T02:54:32.038Z,1008.51
2022-09-07T02:55:32.106Z,1008.50
2022-09-07T02:56:32.022Z,1008.46
2022-09-07T02:57:32.083Z,1008.43
2022-09-07T02:58:32.126Z,1008.45
2022-09-07T02:59:32.100Z,1008.35
2022-09-07T03:00:32.020Z,1008.36
2022-09-07T03:01:32.058Z,1008.30
2022-09-07T03:02:32.035Z,1008.29
2022-09-07T03:03:32.006Z,1008.18
2022-09-07T03:04:31.926Z,1008.18
2022-09-07T03:05:31.972Z,1008.19
2022-09-07T03:06:31.926Z,1008.15
2022-09-07T03:07:34.610Z,1008.14
2022-09-07T03:08:31.989Z,1008.15
2022-09-07T03:09:31.949Z,1008.12
2022-09-07T03:10:31.881Z,1008.14
2022-09-07T03:11:31.962Z,1008.16
2022-09-07T03:12:31.857Z,1008.15
2022-09-07T03:13:31.875Z,1008.11
2022-09-07T03:14:31.815Z,1008.04
2022-09-07T03:15:31.895Z,1008.06
2022-09-07T03:16:31.792Z,1008.10
2022-09-07T03:17:31.801Z,1008.11
2022-09-07T03:18:31.904Z,1008.06
2022-09-07T03:19:31.833Z,1008.08
2022-09-07T03:20:31.773Z,1008.08
2022-09-07T03:21:32.846Z,1008.10
2022-09-07T03:22:31.729Z,1008.09
2022-09-07T03:23:31.735Z,1008.12
2022-09-07T03:24:31.704Z,1008.07
2022-09-07T03:25:31.824Z,1008.11
2022-09-07T03:26:31.681Z,1008.01
2022-09-07T03:27:32.793Z,1007.92
2022-09-07T03:28:31.861Z,1007.90
2022-09-07T03:29:52.718Z,1007.92
2022-09-07T03:30:31.720Z,1007.87
2022-09-07T03:31:31.631Z,1007.82
2022-09-07T03:32:33.656Z,1007.82
2022-09-07T03:33:31.604Z,1007.75
2022-09-07T03:34:32.633Z,1007.70
2022-09-07T03:35:31.612Z,1007.68
2022-09-07T03:36:31.637Z,1007.65
2022-09-07T03:37:31.559Z,1007.62
2022-09-07T03:38:31.729Z,1007.55
2022-09-07T03:39:31.653Z,1007.46
2022-09-07T03:40:31.599Z,1007.44
2022-09-07T03:41:31.512Z,1007.38
2022-09-07T03:42:31.578Z,1007.37
2022-09-07T03:43:31.488Z,1007.37
2022-09-07T03:44:31.573Z,1007.41
2022-09-07T03:45:31.485Z,1007.45
2022-09-07T03:46:31.512Z,1007.50
2022-09-07T03:47:31.448Z,1007.53
2022-09-07T03:48:31.724Z,1007.62
2022-09-07T03:49:31.423Z,1007.61
2022-09-07T03:50:31.464Z,1007.66
2022-09-07T03:51:31.404Z,1007.70
2022-09-07T03:52:31.425Z,1007.76
2022-09-07T03:53:31.381Z,1007.74
2022-09-07T03:54:31.457Z,1007.69
2022-09-07T03:55:31.378Z,1007.63
2022-09-07T03:56:31.451Z,1007.63
2022-09-07T03:57:31.339Z,1007.62
2022-09-07T03:58:31.414Z,1007.57
2022-09-07T03:59:31.316Z,1007.56
2022-09-07T04:00:31.445Z,1007.57
2022-09-07T04:01:31.337Z,1007.58
2022-09-07T04:02:31.466Z,1007.62
2022-09-07T04:03:31.275Z,1007.60
2022-09-07T04:04:31.358Z,1007.63
2022-09-07T04:05:31.247Z,1007.64
2022-09-07T04:06:31.327Z,1007.69
2022-09-07T04:07:31.233Z,1007.65
2022-09-07T04:08:31.377Z,1007.59
2022-09-07T04:09:31.221Z,1007.62
2022-09-07T04:10:33.285Z,1007.62
2022-09-07T04:11:31.182Z,1007.62
2022-09-07T04:12:32.282Z,1007.61
2022-09-07T04:13:31.179Z,1007.57
2022-09-07T04:14:31.219Z,1007.59
2022-09-07T04:15:31.156Z,1007.59
2022-09-07T04:16:54.354Z,1007.63
2022-09-07T04:17:31.140Z,1007.60
2022-09-07T04:18:33.159Z,1007.63
2022-09-07T04:19:31.117Z,1007.68
2022-09-07T04:20:31.120Z,1007.68
2022-09-07T04:21:31.074Z,1007.69
2022-09-07T04:22:31.115Z,1007.71
2022-09-07T04:23:31.055Z,1007.70
2022-09-07T04:24:31.080Z,1007.69
2022-09-07T04:25:31.033Z,1007.70
2022-09-07T04:26:31.063Z,1007.68
2022-09-07T04:27:31.012Z,1007.62
2022-09-07T04:28:31.141Z,1007.63
2022-09-07T04:29:30.995Z,1007.61
2022-09-07T04:30:31.124Z,1007.63
2022-09-07T04:31:30.968Z,1007.61
2022-09-07T04:32:31.001Z,1007.57
2022-09-07T04:33:30.944Z,1007.59
2022-09-07T04:34:31.048Z,1007.54
2022-09-07T04:35:30.921Z,1007.57
2022-09-07T04:36:31.016Z,1007.56
2022-09-07T04:37:30.898Z,1007.51
2022-09-07T04:38:30.972Z,1007.45
2022-09-07T04:39:30.941Z,1007.44
2022-09-07T04:40:30.935Z,1007.41
2022-09-07T04:41:30.862Z,1007.39
2022-09-07T04:42:30.949Z,1007.38
2022-09-07T04:43:30.999Z,1007.41
2022-09-07T04:44:30.917Z,1007.42
2022-09-07T04:45:30.814Z,1007.44
2022-09-07T04:46:30.880Z,1007.40
2022-09-07T04:47:30.786Z,1007.48
2022-09-07T04:48:30.945Z,1007.47
2022-09-07T04:49:30.788Z,1007.50
2022-09-07T04:50:30.816Z,1007.49
2022-09-07T04:51:30.780Z,1007.46
2022-09-07T04:52:30.853Z,1007.47
2022-09-07T04:53:30.737Z,1007.43
2022-09-07T04:54:30.782Z,1007.41
2022-09-07T04:55:30.698Z,1007.41
2022-09-07T04:56:32.823Z,1007.35
2022-09-07T04:57:30.703Z,1007.39
2022-09-07T04:58:32.701Z,1007.36
2022-09-07T04:59:30.687Z,1007.43
2022-09-07T05:00:30.681Z,1007.37
2022-09-07T05:01:30.742Z,1007.37
2022-09-07T05:02:51.701Z,1007.39
2022-09-07T05:03:30.615Z,1007.42
2022-09-07T05:04:30.655Z,1007.35
2022-09-07T05:05:30.595Z,1007.34
2022-09-07T05:06:30.603Z,1007.34
2022-09-07T05:07:30.591Z,1007.30
2022-09-07T05:08:30.731Z,1007.21
2022-09-07T05:09:30.567Z,1007.14
2022-09-07T05:10:30.629Z,1007.04
2022-09-07T05:11:30.527Z,1006.93
2022-09-07T05:12:30.554Z,1006.81
2022-09-07T05:13:30.518Z,1006.81
2022-09-07T05:14:30.631Z,1006.74
2022-09-07T05:15:30.497Z,1006.74
2022-09-07T05:16:30.627Z,1006.69
2022-09-07T05:17:30.461Z,1006.68
2022-09-07T05:18:30.536Z,1006.69
2022-09-07T05:19:30.455Z,1006.69
2022-09-07T05:20:30.503Z,1006.64
2022-09-07T05:21:30.430Z,1006.59
2022-09-07T05:22:30.511Z,1006.61
2022-09-07T05:23:30.407Z,1006.61
2022-09-07T05:24:30.484Z,1006.67
2022-09-07T05:25:30.368Z,1006.67
2022-09-07T05:26:30.433Z,1006.76
2022-09-07T05:27:30.352Z,1006.81
2022-09-07T05:28:30.668Z,1006.89
2022-09-07T05:31:31.397Z,1007.18
2022-09-07T05:32:30.292Z,1007.20
2022-09-07T05:34:31.742Z,1007.31
2022-09-07T05:35:30.291Z,1007.45
2022-09-07T05:36:30.256Z,1007.65
2022-09-07T05:37:30.306Z,1007.88
2022-09-07T05:38:30.405Z,1008.08
2022-09-07T05:39:30.406Z,1008.13
2022-09-07T05:40:30.204Z,1008.11
2022-09-07T05:42:39.813Z,1008.13
2022-09-07T05:44:44.408Z,1008.14
2022-09-07T05:45:39.710Z,1008.15
2022-09-07T05:46:39.683Z,1008.11
2022-09-07T05:47:39.659Z,1008.11
2022-09-07T05:48:41.761Z,1008.15
2022-09-07T05:49:39.692Z,1008.10
2022-09-07T05:50:40.736Z,1008.14
2022-09-07T05:51:39.626Z,1008.06
2022-09-07T05:52:39.625Z,1008.08
2022-09-07T05:53:39.602Z,1008.01
2022-09-07T05:54:41.638Z,1007.95
2022-09-07T05:55:39.570Z,1007.98
2022-09-07T05:56:41.596Z,1007.90
2022-09-07T05:57:39.571Z,1007.89
2022-09-07T05:58:39.581Z,1007.80
2022-09-07T05:59:39.564Z,1007.80
2022-09-07T06:00:39.597Z,1007.78
2022-09-07T06:01:39.578Z,1007.76
2022-09-07T06:02:40.075Z,1007.74
2022-09-07T06:03:39.486Z,1007.77
2022-09-07T06:04:39.554Z,1007.69
2022-09-07T06:05:39.463Z,1007.71
2022-09-07T06:06:39.531Z,1007.74
2022-09-07T06:07:39.449Z,1007.72
2022-09-07T06:08:39.544Z,1007.72
2022-09-07T06:10:43.838Z,1007.72
2022-09-07T06:11:39.418Z,1007.64
2022-09-07T06:12:39.454Z,1007.63
2022-09-07T06:13:39.383Z,1007.65
2022-09-07T06:14:39.423Z,1007.60
2022-09-07T06:15:39.371Z,1007.60
2022-09-07T06:16:39.422Z,1007.67
2022-09-07T06:17:39.334Z,1007.73
2022-09-07T06:18:39.394Z,1007.71
2022-09-07T06:19:39.330Z,1007.68
2022-09-07T06:20:39.411Z,1007.68
2022-09-07T06:21:39.286Z,1007.71
2022-09-07T06:22:39.325Z,1007.76
2022-09-07T06:23:39.283Z,1007.74
2022-09-07T06:24:39.407Z,1007.77
2022-09-07T06:25:39.248Z,1007.73
2022-09-07T06:26:39.347Z,1007.76
2022-09-07T06:27:39.221Z,1007.75
2022-09-07T06:28:39.258Z,1007.69
2022-09-07T06:29:39.214Z,1007.70
2022-09-07T06:30:39.275Z,1007.72
2022-09-07T06:33:01.164Z,1007.82
2022-09-07T06:33:39.162Z,1007.80
2022-09-07T06:34:39.249Z,1007.81
2022-09-07T06:35:39.154Z,1007.83
2022-09-07T06:36:39.210Z,1007.84
2022-09-07T06:37:39.113Z,1007.78
2022-09-07T06:38:39.127Z,1007.79
2022-09-07T06:39:39.187Z,1007.77
2022-09-07T06:40:39.152Z,1007.83
2022-09-07T06:42:40.052Z,1007.82
2022-09-07T06:43:42.765Z,1007.82
2022-09-07T06:44:40.093Z,1007.81
2022-09-07T06:45:39.050Z,1007.83
2022-09-07T06:47:40.010Z,1007.83
2022-09-07T06:48:43.830Z,1007.84
2022-09-07T06:49:40.002Z,1007.87
2022-09-07T06:50:39.003Z,1007.87
2022-09-07T06:51:38.957Z,1007.86
2022-09-07T06:53:41.833Z,1007.93
2022-09-07T06:55:39.911Z,1007.81
2022-09-07T06:56:38.941Z,1007.81
2022-09-07T06:57:38.891Z,1007.85
2022-09-07T06:58:42.314Z,1007.86
2022-09-07T06:59:38.885Z,1007.84
2022-09-07T07:00:39.052Z,1007.87
2022-09-07T07:01:38.845Z,1007.84
2022-09-07T07:02:38.877Z,1007.88
2022-09-07T07:03:38.922Z,1007.84
2022-09-07T07:04:41.143Z,1007.88
2022-09-07T07:05:38.805Z,1007.89
2022-09-07T07:06:38.805Z,1007.93
2022-09-07T07:07:38.780Z,1007.91
2022-09-07T07:08:38.816Z,1007.91
2022-09-07T07:09:38.778Z,1007.88
2022-09-07T07:10:38.830Z,1007.90
2022-09-07T07:11:38.743Z,1007.95
2022-09-07T07:13:08.395Z,1007.96
2022-09-07T07:14:08.503Z,1007.96
2022-09-07T07:15:08.376Z,1007.97
2022-09-07T07:16:08.515Z,1008.03
2022-09-07T07:17:08.363Z,1008.01
2022-09-07T07:18:20.220Z,1008.05
2022-09-07T07:19:09.351Z,1008.05
2022-09-07T07:20:09.410Z,1008.06
2022-09-07T07:21:08.306Z,1008.09
2022-09-07T07:22:23.828Z,1008.11
2022-09-07T07:23:09.283Z,1008.13
2022-09-07T07:24:08.455Z,1008.05
2022-09-07T07:25:08.264Z,1008.10
2022-09-07T07:26:08.325Z,1008.11
2022-09-07T07:27:08.241Z,1008.08
2022-09-07T07:29:09.318Z,1008.06
2022-09-07T07:30:08.203Z,1008.07
2022-09-07T07:31:11.288Z,1008.08
2022-09-07T07:32:08.185Z,1008.07
2022-09-07T07:33:08.322Z,1008.09
2022-09-07T07:34:08.242Z,1008.10
2022-09-07T07:35:08.182Z,1008.16
2022-09-07T07:36:08.139Z,1008.22
2022-09-07T07:37:08.194Z,1008.16
2022-09-07T07:40:17.835Z,1008.21
2022-09-07T07:42:09.070Z,1008.25
2022-09-07T07:43:08.133Z,1008.26
2022-09-07T07:44:08.060Z,1008.25
2022-09-07T07:46:09.126Z,1008.30
2022-09-07T07:47:08.015Z,1008.25
2022-09-07T07:48:08.067Z,1008.23
2022-09-07T07:49:08.023Z,1008.24
2022-09-07T07:51:12.131Z,1008.18
2022-09-07T07:54:08.943Z,1008.24
2022-09-07T07:56:08.938Z,1008.31
2022-09-07T07:57:07.907Z,1008.28
2022-09-07T07:58:07.927Z,1008.29
2022-09-07T07:59:08.726Z,1008.29
2022-09-07T08:00:07.944Z,1008.21
2022-09-07T08:01:07.887Z,1008.24
2022-09-07T08:02:08.043Z,1008.27
2022-09-07T08:03:07.827Z,1008.22
2022-09-07T08:04:07.918Z,1008.23
2022-09-07T08:05:08.810Z,1008.25
2022-09-07T08:06:07.929Z,1008.27
2022-09-07T08:07:10.730Z,1008.29
2022-09-07T08:08:07.793Z,1008.33
2022-09-07T08:09:07.789Z,1008.24
2022-09-07T08:10:28.805Z,1008.23
2022-09-07T08:11:07.739Z,1008.25
2022-09-07T08:12:09.769Z,1008.30
2022-09-07T08:13:07.720Z,1008.25
2022-09-07T08:14:07.791Z,1008.28
2022-09-07T08:15:07.703Z,1008.29
2022-09-07T08:16:07.812Z,1008.22
2022-09-07T08:17:07.680Z,1008.31
2022-09-07T08:18:07.762Z,1008.33
2022-09-07T08:19:07.679Z,1008.29
2022-09-07T08:20:07.685Z,1008.30
2022-09-07T08:21:07.638Z,1008.30
2022-09-07T08:22:07.707Z,1008.31
2022-09-07T08:23:07.615Z,1008.30
2022-09-07T08:24:07.651Z,1008.31
2022-09-07T08:25:07.616Z,1008.33
2022-09-07T08:26:07.612Z,1008.37
2022-09-07T08:27:07.568Z,1008.49
2022-09-07T08:28:07.625Z,1008.44
2022-09-07T08:29:07.566Z,1008.48
2022-09-07T08:30:07.639Z,1008.43
2022-09-07T08:31:07.581Z,1008.44
2022-09-07T08:32:07.551Z,1008.45
2022-09-07T08:33:07.505Z,1008.48
2022-09-07T08:34:07.627Z,1008.48
2022-09-07T08:35:07.492Z,1008.45
2022-09-07T08:36:07.612Z,1008.34
2022-09-07T08:37:07.460Z,1008.40
2022-09-07T08:38:07.502Z,1008.41
2022-09-07T08:39:07.448Z,1008.47
2022-09-07T08:40:07.596Z,1008.41
2022-09-07T08:41:07.415Z,1008.42
2022-09-07T08:42:07.515Z,1008.46
2022-09-07T08:43:07.393Z,1008.41
2022-09-07T08:44:07.480Z,1008.49
2022-09-07T08:45:07.399Z,1008.53
2022-09-07T08:46:07.526Z,1008.49
2022-09-07T08:47:07.374Z,1008.53
2022-09-07T08:48:07.455Z,1008.47
2022-09-07T08:49:07.454Z,1008.46
2022-09-07T08:50:09.417Z,1008.45
2022-09-07T08:51:07.343Z,1008.42
2022-09-07T08:52:07.380Z,1008.38
2022-09-07T08:53:07.284Z,1008.40
2022-09-07T08:54:07.408Z,1008.38
2022-09-07T08:55:07.262Z,1008.40
2022-09-07T08:56:07.355Z,1008.45
2022-09-07T08:57:22.645Z,1008.48
2022-09-07T08:58:21.880Z,1008.51
2022-09-07T08:59:08.240Z,1008.47
2022-09-07T09:00:07.235Z,1008.44
2022-09-07T09:04:16.486Z,1008.49
2022-09-07T09:05:16.756Z,1008.52
2022-09-07T09:06:08.313Z,1008.47
2022-09-07T09:07:07.327Z,1008.48
2022-09-07T09:08:07.130Z,1008.44
2022-09-07T09:09:07.240Z,1008.46
2022-09-07T09:10:07.118Z,1008.49
2022-09-07T09:11:07.101Z,1008.48
2022-09-07T09:12:07.083Z,1008.46
2022-09-07T09:13:07.115Z,1008.46
2022-09-07T09:14:07.078Z,1008.44
2022-09-07T09:15:07.131Z,1008.47
2022-09-07T09:16:07.143Z,1008.43
2022-09-07T09:17:07.045Z,1008.43
2022-09-07T09:18:10.012Z,1008.43
2022-09-07T09:19:07.108Z,1008.41
2022-09-07T09:20:06.993Z,1008.44
2022-09-07T09:21:07.071Z,1008.44
2022-09-07T09:22:06.974Z,1008.49
2022-09-07T09:23:06.982Z,1008.47
2022-09-07T09:24:06.968Z,1008.40
2022-09-07T09:25:06.996Z,1008.39
2022-09-07T09:26:06.942Z,1008.40
2022-09-07T09:27:07.009Z,1008.35
2022-09-07T09:28:06.905Z,1008.35
2022-09-07T09:29:06.973Z,1008.45
2022-09-07T09:30:06.882Z,1008.42
2022-09-07T09:31:06.972Z,1008.42
2022-09-07T09:32:06.859Z,1008.45
2022-09-07T09:33:06.953Z,1008.45
2022-09-07T09:34:06.856Z,1008.46
2022-09-07T09:35:06.856Z,1008.48
2022-09-07T09:36:06.816Z,1008.43
2022-09-07T09:37:06.873Z,1008.42
2022-09-07T09:38:06.797Z,1008.35
2022-09-07T09:39:06.834Z,1008.32
2022-09-07T09:40:06.835Z,1008.40
2022-09-07T09:41:06.798Z,1008.33
2022-09-07T09:42:06.770Z,1008.31
2022-09-07T09:43:06.812Z,1008.35
2022-09-07T09:44:06.752Z,1008.32
2022-09-07T09:45:06.825Z,1008.29
2022-09-07T09:46:13.897Z,1008.28
2022-09-07T09:48:07.766Z,1008.34
2022-09-07T09:49:06.690Z,1008.33
2022-09-07T09:50:07.024Z,1008.38
2022-09-07T09:53:07.633Z,1008.42
2022-09-07T09:54:06.737Z,1008.42
2022-09-07T09:55:32.723Z,1008.48
2022-09-07T09:56:07.604Z,1008.47
2022-09-07T09:57:06.590Z,1008.45
2022-09-07T10:00:11.308Z,1008.47
2022-09-07T10:01:24.265Z,1008.40
2022-09-07T10:04:13.180Z,1008.42
2022-09-07T10:05:07.502Z,1008.42
2022-09-07T10:06:06.559Z,1008.39
2022-09-07T10:07:06.494Z,1008.38
2022-09-07T10:08:06.578Z,1008.40
2022-09-07T10:09:06.489Z,1008.40
2022-09-07T10:10:06.485Z,1008.39
2022-09-07T10:11:06.438Z,1008.40
2022-09-07T10:12:07.570Z,1008.40
2022-09-07T10:13:06.414Z,1008.45
2022-09-07T10:14:06.476Z,1008.47
2022-09-07T10:15:06.390Z,1008.61
2022-09-07T10:16:07.499Z,1008.58
2022-09-07T10:17:06.371Z,1008.63
2022-09-07T10:18:07.459Z,1008.71
2022-09-07T10:19:06.364Z,1008.46
2022-09-07T10:20:27.445Z,1008.55
2022-09-07T10:21:06.325Z,1008.72
2022-09-07T10:22:06.364Z,1008.69
2022-09-07T10:23:06.301Z,1008.66
2022-09-07T10:24:06.330Z,1008.51
2022-09-07T10:25:06.287Z,1008.44
2022-09-07T10:26:06.287Z,1008.57
2022-09-07T10:27:06.255Z,1008.39
2022-09-07T10:28:06.300Z,1008.46
2022-09-07T10:29:06.797Z,1008.41
2022-09-07T10:30:07.047Z,1008.42
2022-09-07T10:31:08.862Z,1008.47
2022-09-07T10:32:06.226Z,1008.34
2022-09-07T10:33:06.192Z,1008.32
2022-09-07T10:35:07.271Z,1008.33
2022-09-07T10:36:06.164Z,1008.44
2022-09-07T10:37:06.268Z,1008.26
2022-09-07T10:38:06.141Z,1008.25
2022-09-07T10:39:06.225Z,1008.24
2022-09-07T10:40:06.159Z,1008.26
2022-09-07T10:41:06.186Z,1008.23
2022-09-07T10:42:06.098Z,1008.17
2022-09-07T10:43:22.128Z,1008.16
2022-09-07T10:44:07.093Z,1008.21
2022-09-07T10:45:06.112Z,1008.11
2022-09-07T10:46:06.156Z,1008.16
2022-09-07T10:47:06.172Z,1008.12
2022-09-07T10:48:06.029Z,1008.15
2022-09-07T10:49:06.086Z,1008.17
2022-09-07T10:51:13.693Z,1008.09
2022-09-07T10:52:07.083Z,1008.06
2022-09-07T10:53:23.554Z,1008.01
2022-09-07T10:55:06.962Z,1007.98
2022-09-07T10:56:05.983Z,1008.00
2022-09-07T10:57:05.934Z,1007.96
2022-09-07T10:58:05.998Z,1008.00
2022-09-07T10:59:05.932Z,1008.00
2022-09-07T11:00:09.710Z,1008.01
2022-09-07T11:01:05.917Z,1007.96
2022-09-07T11:02:07.985Z,1007.97
2022-09-07T11:04:06.881Z,1007.98
2022-09-07T11:05:05.846Z,1008.03
2022-09-07T11:07:15.861Z,1008.07
2022-09-07T11:08:15.430Z,1008.07
2022-09-07T11:09:16.900Z,1008.06
2022-09-07T11:10:15.405Z,1008.12
2022-09-07T11:11:15.404Z,1008.07
2022-09-07T11:12:15.381Z,1008.08
2022-09-07T11:13:15.418Z,1008.07
2022-09-07T11:14:15.382Z,1008.03
2022-09-07T11:15:15.350Z,1008.10
2022-09-07T11:17:16.339Z,1008.04
2022-09-07T11:18:15.351Z,1008.01
2022-09-07T11:20:16.296Z,1008.09
2022-09-07T11:21:15.297Z,1008.14
2022-09-07T11:22:15.378Z,1008.11
2022-09-07T11:23:15.258Z,1008.08
2022-09-07T11:24:17.290Z,1008.10
2022-09-07T11:25:30.821Z,1008.05
2022-09-07T11:26:16.231Z,1008.08
2022-09-07T11:27:15.216Z,1008.07
2022-09-07T11:28:16.242Z,1008.08
2022-09-07T11:29:30.614Z,1008.09
2022-09-07T11:30:16.189Z,1008.06
2022-09-07T11:31:15.256Z,1008.08
2022-09-07T11:32:15.165Z,1008.04
2022-09-07T11:33:15.165Z,1007.99
2022-09-07T11:34:30.606Z,1008.02
2022-09-07T11:35:16.131Z,1007.98
2022-09-07T11:36:15.271Z,1008.02
2022-09-07T11:37:15.112Z,1007.96
2022-09-07T11:38:15.181Z,1008.00
2022-09-07T11:39:15.105Z,1007.99
2022-09-07T11:40:15.131Z,1008.00
2022-09-07T11:41:15.066Z,1008.03
2022-09-07T11:42:44.672Z,1007.98
2022-09-07T11:43:16.141Z,1007.98
2022-09-07T11:44:15.057Z,1007.96
2022-09-07T11:45:15.131Z,1008.00
2022-09-07T11:46:15.073Z,1008.03
2022-09-07T11:47:15.038Z,1007.98
2022-09-07T11:48:19.588Z,1008.04
2022-09-07T11:49:15.141Z,1008.07
2022-09-07T11:50:14.966Z,1008.01
2022-09-07T11:51:15.067Z,1007.99
2022-09-07T11:52:14.948Z,1007.99
2022-09-07T11:53:14.986Z,1008.00
2022-09-07T11:54:14.940Z,1008.00
2022-09-07T11:55:14.992Z,1007.99
2022-09-07T11:56:14.902Z,1007.97
2022-09-07T11:57:15.007Z,1007.96
2022-09-07T11:58:14.885Z,1008.15
2022-09-07T11:59:14.971Z,1007.97
2022-09-07T12:00:14.858Z,1007.97
2022-09-07T12:01:14.933Z,1008.11
2022-09-07T12:02:14.925Z,1008.01
2022-09-07T12:03:14.892Z,1007.95
2022-09-07T12:04:15.743Z,1007.91
2022-09-07T12:05:16.936Z,1007.90
2022-09-07T12:06:14.799Z,1007.83
2022-09-07T12:07:15.894Z,1007.80
2022-09-07T12:08:14.774Z,1007.82
2022-09-07T12:09:14.835Z,1007.77
2022-09-07T12:10:14.755Z,1007.81
2022-09-07T12:11:20.169Z,1007.83
2022-09-07T12:12:15.734Z,1007.83
2022-09-07T12:13:16.756Z,1007.82
2022-09-07T12:14:14.734Z,1007.87
2022-09-07T12:15:14.722Z,1007.88
2022-09-07T12:16:14.744Z,1007.96
2022-09-07T12:17:14.735Z,1007.96
2022-09-07T12:18:14.667Z,1007.99
2022-09-07T12:19:14.704Z,1007.97
2022-09-07T12:20:14.646Z,1007.98
2022-09-07T12:21:14.677Z,1007.93
2022-09-07T12:22:14.625Z,1007.93
2022-09-07T12:23:14.683Z,1007.98
2022-09-07T12:24:14.626Z,1007.95
2022-09-07T12:25:14.692Z,1008.05
2022-09-07T12:26:14.580Z,1007.98
2022-09-07T12:27:14.605Z,1008.00
2022-09-07T12:28:17.580Z,1008.05
2022-09-07T12:29:15.589Z,1008.02
2022-09-07T12:30:14.536Z,1007.98
2022-09-07T12:31:14.677Z,1008.01
2022-09-07T12:33:15.511Z,1007.98
2022-09-07T12:34:14.511Z,1007.89
2022-09-07T12:35:14.556Z,1007.89
2022-09-07T12:36:14.476Z,1007.86
2022-09-07T12:37:14.601Z,1007.92
2022-09-07T12:38:14.468Z,1007.86
2022-09-07T12:39:14.533Z,1007.93
2022-09-07T12:40:14.498Z,1007.92
2022-09-07T12:41:14.494Z,1007.89
2022-09-07T12:42:43.750Z,1007.90
2022-09-07T12:43:15.400Z,1007.87
2022-09-07T12:44:14.403Z,1007.88